Time;durP1;ratioP1;P1;durP2;ratioP2;P2;SDS_P1;SDS_P2;PMS_P1;PMS_P2;Temp;Humidity;BMP_temperature;BMP_pressure;BME280_temperature;BME280_humidity;BME280_pressure;Samples;Min_cycle;Max_cycle;Signal;HPM_P1;HPM_P2
2021/11/08 00:01:39;;;;;;;3.60;2.67;;;13.80;96.70;;;;;;4943482;28;20044;-86
2021/11/08 00:04:08;;;;;;;3.67;2.78;;;13.70;96.70;;;;;;4933672;28;20162;-86
2021/11/08 00:06:36;;;;;;;4.90;2.92;;;13.70;96.70;;;;;;4939682;28;20074;-86
2021/11/08 00:09:05;;;;;;;5.78;3.03;;;13.60;96.70;;;;;;4941241;28;20049;-86
2021/11/08 00:11:33;;;;;;;5.47;2.70;;;13.60;96.70;;;;;;4925860;28;20545;-87
2021/11/08 00:14:02;;;;;;;3.92;2.47;;;13.60;96.70;;;;;;4936348;28;20098;-86
2021/11/08 00:19:34;;;;;;;4.93;3.15;;;13.60;96.70;;;;;;4938381;28;20043;-86
2021/11/08 00:22:03;;;;;;;5.65;2.85;;;13.60;96.70;;;;;;4933736;28;20051;-86
2021/11/08 00:24:32;;;;;;;3.88;2.85;;;13.60;96.70;;;;;;4937100;28;20035;-87
2021/11/08 00:27:01;;;;;;;4.30;2.60;;;13.60;96.70;;;;;;4942565;28;20047;-86
2021/11/08 00:29:30;;;;;;;4.95;2.72;;;13.60;96.70;;;;;;4935678;28;20039;-86
2021/11/08 00:32:00;;;;;;;3.90;2.72;;;13.60;96.70;;;;;;4950977;28;20047;-86
2021/11/08 00:34:30;;;;;;;4.00;2.80;;;13.50;96.70;;;;;;4934836;28;20142;-86
2021/11/08 00:36:59;;;;;;;3.67;2.45;;;13.50;96.70;;;;;;4935163;28;20062;-86
2021/11/08 00:39:28;;;;;;;3.65;2.50;;;13.50;96.70;;;;;;4942365;28;20054;-84
2021/11/08 00:41:57;;;;;;;6.03;2.97;;;13.40;96.70;;;;;;4949264;28;20126;-86
2021/11/08 00:44:25;;;;;;;5.50;2.92;;;13.20;96.70;;;;;;4947179;28;20051;-86
2021/11/08 00:46:56;;;;;;;4.13;3.17;;;13.20;96.70;;;;;;4924789;28;20103;-86
2021/11/08 00:49:26;;;;;;;3.85;2.75;;;13.20;96.70;;;;;;4937496;28;20158;-85
2021/11/08 00:51:56;;;;;;;7.38;3.05;;;13.30;96.70;;;;;;4935513;28;20079;-86
2021/11/08 00:54:24;;;;;;;6.95;3.75;;;13.20;96.70;;;;;;4938753;28;20586;-86
2021/11/08 00:56:56;;;;;;;6.20;4.35;;;13.20;96.70;;;;;;4938342;28;20035;-85
2021/11/08 00:59:25;;;;;;;6.55;3.67;;;13.20;96.70;;;;;;4935460;28;20047;-84
2021/11/08 01:01:57;;;;;;;6.85;3.33;;;13.20;96.70;;;;;;4942830;28;20043;-85
2021/11/08 01:04:26;;;;;;;7.63;3.33;;;13.30;96.70;;;;;;4942678;28;20067;-86
2021/11/08 01:07:00;;;;;;;4.28;3.13;;;13.20;96.70;;;;;;4945553;28;20055;-86
2021/11/08 01:09:30;;;;;;;3.50;2.63;;;13.20;96.70;;;;;;4942234;28;20051;-86
2021/11/08 01:11:59;;;;;;;4.35;2.60;;;13.20;96.70;;;;;;4922583;29;20174;-86
2021/11/08 01:14:27;;;;;;;4.13;2.40;;;13.20;96.70;;;;;;4923188;28;20044;-86
2021/11/08 01:16:59;;;;;;;4.45;2.30;;;13.20;96.70;;;;;;4937103;28;20527;-86
2021/11/08 01:19:29;;;;;;;6.93;2.40;;;13.20;96.70;;;;;;4943766;28;20525;-86
2021/11/08 01:22:17;;;;;;;5.65;2.60;;;13.10;96.70;;;;;;4926088;28;20047;-86
2021/11/08 01:24:55;;;;;;;3.05;2.00;;;13.10;96.70;;;;;;4920335;28;20052;-85
2021/11/08 01:27:33;;;;;;;3.95;2.47;;;13.00;96.70;;;;;;4938065;28;20052;-86
2021/11/08 01:30:04;;;;;;;3.65;2.60;;;13.00;96.70;;;;;;4937343;28;20058;-86
2021/11/08 01:32:32;;;;;;;4.20;2.47;;;12.90;96.70;;;;;;4939187;28;22622;-85
2021/11/08 01:35:00;;;;;;;3.72;2.42;;;12.90;96.70;;;;;;4949727;28;20059;-86
2021/11/08 01:37:31;;;;;;;4.05;2.33;;;12.90;96.70;;;;;;4937080;28;20047;-85
2021/11/08 01:39:59;;;;;;;3.75;2.30;;;13.00;96.70;;;;;;4934027;28;20078;-86
2021/11/08 01:42:27;;;;;;;4.47;2.55;;;13.00;96.70;;;;;;4939938;28;20039;-86
2021/11/08 01:44:55;;;;;;;4.40;2.60;;;13.00;96.70;;;;;;4936809;28;20036;-85
2021/11/08 01:47:24;;;;;;;4.07;2.38;;;12.90;96.70;;;;;;4938148;28;20071;-86
2021/11/08 01:49:52;;;;;;;3.40;2.70;;;12.90;96.70;;;;;;4946469;28;20111;-86
2021/11/08 01:52:21;;;;;;;4.70;2.55;;;12.90;96.70;;;;;;4937319;28;20095;-86
2021/11/08 01:54:51;;;;;;;4.20;2.45;;;12.80;96.70;;;;;;4929918;28;20066;-86
2021/11/08 01:57:19;;;;;;;4.00;2.38;;;12.80;96.70;;;;;;4941985;28;20698;-87
2021/11/08 01:59:47;;;;;;;3.15;2.40;;;12.80;96.70;;;;;;4940317;28;20051;-86
2021/11/08 02:02:15;;;;;;;4.15;2.70;;;12.80;96.70;;;;;;4941443;28;20131;-86
2021/11/08 02:04:43;;;;;;;3.92;2.40;;;12.80;96.70;;;;;;4939473;28;20043;-86
2021/11/08 02:07:12;;;;;;;4.13;2.58;;;12.80;96.70;;;;;;4945631;28;20065;-85
2021/11/08 02:09:40;;;;;;;4.85;2.47;;;12.70;96.70;;;;;;4933004;28;20048;-85
2021/11/08 02:12:11;;;;;;;3.72;2.50;;;12.70;96.70;;;;;;4943927;28;20494;-86
2021/11/08 02:14:40;;;;;;;5.32;2.78;;;12.70;96.70;;;;;;4940377;28;20068;-85
2021/11/08 02:17:08;;;;;;;2.78;2.33;;;12.60;96.70;;;;;;4926964;29;20050;-85
2021/11/08 02:19:36;;;;;;;2.85;2.42;;;12.60;96.70;;;;;;4941768;28;20066;-85
2021/11/08 02:22:07;;;;;;;5.20;2.53;;;12.50;96.70;;;;;;4937149;28;20060;-85
2021/11/08 02:24:36;;;;;;;3.28;2.30;;;12.50;96.70;;;;;;4919123;28;20525;-86
2021/11/08 02:27:06;;;;;;;3.38;2.30;;;12.50;96.70;;;;;;4939559;28;20043;-86
2021/11/08 02:29:35;;;;;;;3.55;2.40;;;12.50;96.70;;;;;;4952547;28;20126;-85
2021/11/08 02:32:04;;;;;;;3.53;2.13;;;12.40;96.70;;;;;;4932931;28;20170;-86
2021/11/08 02:34:32;;;;;;;4.88;2.30;;;12.50;96.70;;;;;;4932741;28;20051;-86
2021/11/08 02:37:00;;;;;;;3.75;2.35;;;12.50;96.70;;;;;;4940920;28;20054;-86
2021/11/08 02:39:36;;;;;;;4.75;2.20;;;12.50;96.70;;;;;;4937837;28;20046;-86
2021/11/08 02:42:05;;;;;;;2.83;2.07;;;12.60;96.70;;;;;;4930660;28;20632;-86
2021/11/08 02:44:33;;;;;;;6.88;1.95;;;12.70;96.70;;;;;;4914597;29;20327;-85
2021/11/08 02:47:01;;;;;;;4.97;1.80;;;12.70;96.70;;;;;;4937311;28;20036;-85
2021/11/08 02:49:32;;;;;;;10.45;2.15;;;12.80;96.70;;;;;;4937760;28;20056;-86
2021/11/08 02:52:04;;;;;;;4.15;2.17;;;12.80;96.70;;;;;;4940689;28;20581;-86
2021/11/08 02:54:41;;;;;;;4.00;2.25;;;12.70;96.70;;;;;;4941891;28;20082;-85
2021/11/08 02:57:09;;;;;;;7.72;2.92;;;12.70;96.70;;;;;;4939008;28;20503;-85
2021/11/08 02:59:38;;;;;;;5.28;2.08;;;12.70;96.70;;;;;;4922065;28;20063;-85
2021/11/08 03:02:08;;;;;;;3.00;2.03;;;12.70;96.70;;;;;;4933400;28;20474;-85
2021/11/08 03:04:42;;;;;;;4.75;2.40;;;12.70;96.70;;;;;;4926407;28;20050;-85
2021/11/08 03:07:11;;;;;;;3.75;2.15;;;12.60;96.70;;;;;;4939409;28;20062;-85
2021/11/08 03:09:44;;;;;;;6.03;3.25;;;12.50;96.70;;;;;;4932054;29;20043;-85
2021/11/08 03:12:15;;;;;;;4.32;2.00;;;12.50;96.70;;;;;;4927271;28;20043;-85
2021/11/08 03:15:10;;;;;;;4.07;2.13;;;12.40;96.70;;;;;;4926787;28;20090;-85
2021/11/08 03:17:42;;;;;;;3.80;2.08;;;12.30;96.70;;;;;;4923929;28;20047;-85
2021/11/08 03:20:15;;;;;;;4.25;2.38;;;12.20;96.70;;;;;;4940489;28;20055;-84
2021/11/08 03:22:56;;;;;;;4.47;2.30;;;12.20;96.70;;;;;;4941970;28;20541;-85
2021/11/08 03:28:02;;;;;;;4.53;2.35;;;12.20;96.70;;;;;;4950557;28;20130;-82
2021/11/08 03:30:38;;;;;;;5.25;2.33;;;12.20;96.70;;;;;;4942712;28;20241;-82
2021/11/08 03:33:08;;;;;;;;;;;12.10;96.70;;;;;;4947801;28;20043;-82
2021/11/08 03:35:38;;;;;;;3.70;2.25;;;12.10;96.70;;;;;;4954466;28;20543;-82
2021/11/08 03:38:09;;;;;;;2.22;1.77;;;12.10;96.70;;;;;;4923329;29;20089;-82
2021/11/08 03:40:41;;;;;;;3.38;2.13;;;12.10;96.70;;;;;;4931192;28;20051;-82
2021/11/08 03:43:12;;;;;;;3.83;2.25;;;12.00;96.70;;;;;;4942726;28;20297;-82
2021/11/08 03:45:41;;;;;;;4.65;2.08;;;12.00;96.70;;;;;;4921201;28;20122;-81
2021/11/08 03:48:11;;;;;;;3.10;2.10;;;12.10;96.70;;;;;;4938661;28;20047;-82
2021/11/08 03:50:40;;;;;;;5.50;2.38;;;12.00;96.70;;;;;;4921089;29;20525;-82
2021/11/08 03:53:09;;;;;;;3.78;2.28;;;12.00;96.70;;;;;;4934369;28;20049;-82
2021/11/08 03:55:39;;;;;;;6.38;2.50;;;12.00;96.70;;;;;;4937047;28;20091;-82
2021/11/08 03:58:08;;;;;;;4.70;2.20;;;12.00;96.70;;;;;;4924408;29;20074;-82
2021/11/08 04:00:37;;;;;;;4.47;2.28;;;12.00;96.70;;;;;;4944932;28;20053;-82
2021/11/08 04:03:05;;;;;;;3.63;2.55;;;12.00;96.70;;;;;;4928004;28;20081;-82
2021/11/08 04:05:36;;;;;;;4.80;2.13;;;12.00;96.70;;;;;;4941776;28;20049;-82
2021/11/08 04:08:08;;;;;;;5.05;2.33;;;12.00;96.70;;;;;;4946017;28;20579;-82
2021/11/08 04:10:41;;;;;;;3.42;1.95;;;12.00;96.70;;;;;;4939264;28;20071;-83
2021/11/08 04:13:10;;;;;;;3.20;2.33;;;12.00;96.70;;;;;;4927640;28;20036;-82
2021/11/08 04:15:41;;;;;;;5.93;2.40;;;12.00;96.70;;;;;;4936648;28;20059;-82
2021/11/08 04:18:15;;;;;;;3.88;2.40;;;12.00;96.70;;;;;;4953139;28;20050;-82
2021/11/08 04:20:45;;;;;;;3.15;2.67;;;12.00;96.70;;;;;;4942583;28;20485;-82
2021/11/08 04:23:15;;;;;;;5.05;3.72;;;12.00;96.70;;;;;;4947679;28;20042;-82
2021/11/08 04:25:45;;;;;;;6.35;2.92;;;11.90;96.70;;;;;;4924101;28;20047;-81
2021/11/08 04:28:13;;;;;;;3.70;2.53;;;11.90;96.70;;;;;;4943854;28;20115;-82
2021/11/08 04:30:43;;;;;;;3.88;3.28;;;12.00;96.70;;;;;;4943937;28;20073;-81
2021/11/08 04:33:25;;;;;;;5.93;3.30;;;11.90;96.70;;;;;;4932476;28;20047;-82
2021/11/08 04:36:36;;;;;;;6.75;3.25;;;11.90;96.70;;;;;;4933294;28;20126;-82
2021/11/08 04:38:53;;;;;;;5.00;3.40;;;12.00;96.70;;;;;;4937205;28;20054;-82
2021/11/08 04:41:39;;;;;;;5.22;2.92;;;12.00;96.70;;;;;;4929138;28;20055;-82
2021/11/08 04:44:44;;;;;;;3.92;3.05;;;12.00;96.70;;;;;;4926704;29;20048;-82
2021/11/08 04:47:50;;;;;;;4.05;2.90;;;12.00;96.70;;;;;;4947137;28;20039;-82
2021/11/08 04:53:08;;;;;;;5.50;3.35;;;11.90;96.70;;;;;;4945753;28;20050;-82
2021/11/08 05:29:53;;;;;;;4.43;3.15;;;11.80;96.70;;;;;;4898109;29;20416;-83
2021/11/08 05:31:32;;;;;;;4.88;2.70;;;11.80;96.70;;;;;;4899583;29;20399;-83
2021/11/08 05:34:00;;;;;;;3.95;2.67;;;11.80;96.70;;;;;;4888541;29;20045;-82
2021/11/08 05:36:28;;;;;;;3.33;2.47;;;11.80;96.70;;;;;;4897742;29;20056;-82
2021/11/08 05:38:57;;;;;;;3.83;2.53;;;11.70;96.70;;;;;;4902868;29;20138;-82
2021/11/08 05:41:25;;;;;;;2.92;2.13;;;11.70;96.70;;;;;;4899364;29;20429;-82
2021/11/08 05:43:53;;;;;;;4.43;2.47;;;11.70;96.70;;;;;;4884541;29;20442;-82
2021/11/08 05:46:21;;;;;;;3.08;2.10;;;11.70;96.70;;;;;;4900118;29;20039;-82
2021/11/08 05:48:51;;;;;;;3.30;2.40;;;11.70;96.70;;;;;;4909741;29;20589;-83
2021/11/08 05:51:20;;;;;;;3.10;2.30;;;11.70;96.70;;;;;;4895516;29;20044;-83
2021/11/08 05:53:50;;;;;;;4.78;2.83;;;11.70;96.70;;;;;;4905999;29;20047;-83
2021/11/08 05:56:29;;;;;;;7.18;4.03;;;11.70;96.70;;;;;;4887912;29;20039;-81
2021/11/08 06:51:46;;;;;;;4.38;2.50;;;12.10;96.70;;;;;;4934369;28;20048;-81
2021/11/08 06:54:17;;;;;;;2.97;2.33;;;12.10;96.70;;;;;;4943461;28;20043;-81
2021/11/08 06:56:50;;;;;;;4.05;2.47;;;12.20;96.70;;;;;;4945512;28;20043;-81
2021/11/08 06:59:19;;;;;;;5.45;2.17;;;12.20;96.70;;;;;;4946396;28;20490;-81
2021/11/08 07:01:48;;;;;;;3.75;2.40;;;12.40;96.70;;;;;;4940293;28;20091;-81
2021/11/08 07:04:17;;;;;;;3.28;2.60;;;12.40;96.70;;;;;;4921075;29;20071;-81
2021/11/08 07:06:47;;;;;;;2.67;2.05;;;12.50;96.70;;;;;;4944341;28;20139;-80
2021/11/08 07:09:18;;;;;;;3.78;2.15;;;12.50;96.70;;;;;;4920950;28;20185;-81
2021/11/08 07:11:47;;;;;;;4.05;2.35;;;12.50;96.70;;;;;;4926220;28;20130;-81
2021/11/08 07:14:17;;;;;;;5.93;3.15;;;12.50;96.70;;;;;;4941789;28;20042;-81
2021/11/08 07:16:45;;;;;;;4.78;2.53;;;12.60;96.70;;;;;;4923972;28;20040;-81
2021/11/08 07:19:15;;;;;;;6.45;2.50;;;12.60;96.70;;;;;;4939613;28;20054;-81
2021/11/08 07:21:44;;;;;;;4.00;2.42;;;12.70;96.70;;;;;;4950609;28;20110;-81
2021/11/08 07:24:13;;;;;;;3.40;2.72;;;12.80;96.70;;;;;;4937777;28;20138;-80
2021/11/08 07:26:44;;;;;;;5.32;2.92;;;12.80;96.70;;;;;;4942252;28;20082;-81
2021/11/08 07:29:14;;;;;;;5.38;2.70;;;12.90;96.70;;;;;;4937146;28;20110;-80
2021/11/08 07:31:44;;;;;;;7.78;3.05;;;13.00;96.70;;;;;;4930122;28;20056;-82
2021/11/08 07:34:13;;;;;;;4.75;2.97;;;13.20;96.70;;;;;;4935912;28;20051;-80
2021/11/08 07:36:41;;;;;;;6.20;3.22;;;13.30;96.70;;;;;;4934154;28;20039;-80
2021/11/08 07:39:09;;;;;;;6.85;3.38;;;13.40;96.70;;;;;;4938769;28;20091;-80
2021/11/08 07:41:38;;;;;;;6.80;2.80;;;13.50;96.70;;;;;;4920185;28;20206;-79
2021/11/08 07:44:10;;;;;;;5.30;2.92;;;13.60;96.70;;;;;;4939341;28;20051;-79
2021/11/08 07:46:38;;;;;;;4.25;2.53;;;13.80;96.70;;;;;;4936975;28;20047;-80
2021/11/08 07:49:07;;;;;;;4.88;2.75;;;13.90;96.70;;;;;;4942177;28;20055;-80
2021/11/08 07:51:35;;;;;;;6.40;2.67;;;14.00;96.70;;;;;;4945561;28;20044;-80
2021/11/08 07:54:03;;;;;;;4.72;2.65;;;14.10;96.70;;;;;;4936456;28;20118;-79
2021/11/08 07:56:32;;;;;;;6.95;3.15;;;14.20;96.70;;;;;;4942376;28;20541;-80
2021/11/08 07:59:00;;;;;;;5.75;2.83;;;14.30;96.70;;;;;;4943873;28;20589;-79
2021/11/08 08:01:29;;;;;;;6.32;3.20;;;14.30;96.70;;;;;;4944913;28;20073;-80
2021/11/08 08:03:58;;;;;;;6.22;2.92;;;14.40;96.70;;;;;;4936959;28;20067;-80
2021/11/08 08:06:26;;;;;;;6.28;3.00;;;14.50;96.70;;;;;;4925471;28;20058;-80
2021/11/08 08:08:54;;;;;;;5.40;3.00;;;14.60;96.70;;;;;;4941909;28;20063;-80
2021/11/08 08:11:23;;;;;;;11.00;3.20;;;14.60;96.70;;;;;;4939725;28;20109;-80
2021/11/08 08:13:51;;;;;;;4.55;2.90;;;14.70;96.70;;;;;;4932370;28;20556;-81
2021/11/08 08:16:24;;;;;;;6.50;3.05;;;14.80;96.70;;;;;;4939838;28;20381;-81
2021/11/08 08:18:55;;;;;;;5.88;3.22;;;14.90;96.70;;;;;;4934475;28;20146;-81
2021/11/08 08:21:24;;;;;;;8.50;3.58;;;15.00;96.70;;;;;;4945459;28;20604;-81
2021/11/08 08:23:55;;;;;;;5.53;2.75;;;15.10;96.70;;;;;;4936226;28;20555;-83
2021/11/08 08:26:26;;;;;;;5.85;3.17;;;15.20;96.70;;;;;;4943221;28;20524;-79
2021/11/08 08:28:55;;;;;;;5.97;2.92;;;15.30;96.70;;;;;;4939940;28;20062;-81
2021/11/08 08:31:24;;;;;;;5.20;2.88;;;15.40;96.70;;;;;;4934870;28;20058;-80
2021/11/08 08:33:53;;;;;;;8.75;2.95;;;15.50;96.70;;;;;;4938627;28;20355;-79
2021/11/08 08:36:22;;;;;;;5.88;2.90;;;15.50;96.70;;;;;;4940595;28;20048;-80
2021/11/08 08:38:51;;;;;;;5.32;2.65;;;15.70;96.70;;;;;;4933236;28;20606;-79
2021/11/08 08:41:19;;;;;;;6.07;3.20;;;15.70;96.70;;;;;;4935549;28;20044;-82
2021/11/08 08:43:49;;;;;;;10.10;4.32;;;15.90;96.70;;;;;;4935469;28;20032;-82
2021/11/08 08:46:20;;;;;;;7.57;3.83;;;15.90;96.70;;;;;;4931973;28;20425;-82
2021/11/08 08:48:49;;;;;;;7.18;3.03;;;16.00;96.70;;;;;;4923434;28;20166;-81
2021/11/08 08:51:20;;;;;;;8.75;3.17;;;16.00;96.70;;;;;;4925805;28;20158;-80
2021/11/08 08:53:48;;;;;;;9.13;3.33;;;16.10;96.70;;;;;;4932669;28;20047;-81
2021/11/08 08:56:20;;;;;;;6.78;3.28;;;16.20;96.70;;;;;;4933405;28;20047;-80
2021/11/08 08:58:49;;;;;;;7.03;2.85;;;16.20;96.70;;;;;;4922667;29;20146;-80
2021/11/08 09:01:18;;;;;;;9.05;3.50;;;16.20;96.70;;;;;;4940069;28;20142;-81
2021/11/08 09:03:47;;;;;;;7.80;3.47;;;16.20;96.70;;;;;;4933684;28;20134;-79
2021/11/08 09:06:15;;;;;;;6.50;2.85;;;16.20;96.70;;;;;;4943962;28;20130;-80
2021/11/08 09:08:45;;;;;;;7.38;3.78;;;16.20;96.70;;;;;;4927803;28;20044;-80
2021/11/08 09:11:14;;;;;;;8.70;3.30;;;16.30;96.70;;;;;;4934152;28;20047;-80
2021/11/08 09:13:43;;;;;;;4.90;2.80;;;16.40;96.70;;;;;;4939133;28;20050;-79
2021/11/08 09:16:12;;;;;;;9.45;3.05;;;16.40;96.70;;;;;;4923590;28;20050;-82
2021/11/08 09:18:41;;;;;;;6.55;3.30;;;16.50;96.70;;;;;;4938197;28;20510;-80
2021/11/08 09:21:10;;;;;;;7.80;3.88;;;16.70;96.70;;;;;;4916742;28;20235;-79
2021/11/08 09:23:46;;;;;;;5.10;3.03;;;16.90;96.70;;;;;;4935640;28;20067;-80
2021/11/08 09:26:15;;;;;;;6.18;3.25;;;17.00;96.70;;;;;;4935750;28;20048;-81
2021/11/08 09:28:44;;;;;;;6.63;3.30;;;17.00;96.70;;;;;;4932290;28;20043;-81
2021/11/08 09:31:12;;;;;;;7.20;2.80;;;17.00;96.70;;;;;;4934560;28;20117;-79
2021/11/08 09:33:42;;;;;;;7.07;3.00;;;17.10;96.70;;;;;;4922127;28;20047;-79
2021/11/08 09:36:12;;;;;;;6.13;3.05;;;17.30;96.70;;;;;;4933358;28;20058;-79
2021/11/08 09:38:50;;;;;;;6.68;2.90;;;17.50;96.70;;;;;;4932050;28;20178;-79
2021/11/08 09:41:21;;;;;;;5.78;2.85;;;17.60;96.70;;;;;;4930730;28;20057;-80
2021/11/08 09:43:52;;;;;;;8.23;3.05;;;17.60;96.70;;;;;;4936211;28;20054;-81
2021/11/08 09:46:23;;;;;;;8.32;3.15;;;17.50;96.70;;;;;;4932019;28;20090;-80
2021/11/08 09:48:52;;;;;;;6.25;2.90;;;17.60;96.70;;;;;;4930353;28;20052;-80
2021/11/08 09:51:21;;;;;;;6.60;3.50;;;17.70;96.70;;;;;;4935262;28;20047;-84
2021/11/08 09:53:50;;;;;;;6.68;2.88;;;17.80;96.70;;;;;;4946428;28;20052;-81
2021/11/08 09:56:20;;;;;;;12.57;3.40;;;18.00;96.70;;;;;;4941722;28;20512;-80
2021/11/08 09:58:49;;;;;;;8.50;3.85;;;18.20;96.70;;;;;;4918077;29;20448;-81
2021/11/08 10:01:27;;;;;;;10.68;3.28;;;18.30;96.70;;;;;;4921265;28;20473;-81
2021/11/08 10:03:56;;;;;;;9.80;3.83;;;18.50;96.70;;;;;;4932071;28;20127;-81
2021/11/08 10:06:26;;;;;;;10.05;3.63;;;18.60;96.70;;;;;;4939716;28;20043;-80
2021/11/08 10:08:55;;;;;;;8.13;3.13;;;18.70;96.70;;;;;;4937314;28;20043;-81
2021/11/08 10:11:26;;;;;;;8.02;3.30;;;18.70;96.70;;;;;;4930094;28;20569;-82
2021/11/08 10:13:55;;;;;;;10.07;3.13;;;18.90;96.70;;;;;;4940506;28;20053;-81
2021/11/08 10:16:28;;;;;;;9.95;3.58;;;18.90;96.70;;;;;;4936682;28;20565;-82
2021/11/08 10:18:59;;;;;;;9.18;3.72;;;18.80;96.70;;;;;;4946341;28;20663;-80
2021/11/08 10:21:31;;;;;;;10.52;3.92;;;18.90;96.70;;;;;;4939684;28;20140;-82
2021/11/08 10:24:01;;;;;;;11.32;4.05;;;19.00;96.70;;;;;;4936678;28;20043;-82
2021/11/08 10:26:34;;;;;;;10.88;3.67;;;19.10;96.70;;;;;;4922994;28;20062;-83
2021/11/08 10:29:07;;;;;;;7.28;2.55;;;19.30;96.70;;;;;;4940821;28;20102;-84
2021/11/08 10:31:37;;;;;;;7.75;3.10;;;19.30;96.70;;;;;;4933263;28;20055;-82
2021/11/08 10:34:09;;;;;;;10.38;3.10;;;19.30;96.70;;;;;;4940377;28;20715;-84
2021/11/08 10:36:37;;;;;;;7.38;2.60;;;19.40;96.70;;;;;;4919990;28;20110;-85
2021/11/08 10:39:08;;;;;;;9.68;2.85;;;19.50;96.70;;;;;;4946592;28;20122;-83
2021/11/08 10:41:40;;;;;;;7.95;2.42;;;19.50;96.70;;;;;;4940876;28;20039;-84
2021/11/08 10:44:11;;;;;;;9.35;2.80;;;19.60;96.70;;;;;;4939923;28;20052;-83
2021/11/08 10:46:41;;;;;;;5.75;2.60;;;19.60;96.70;;;;;;4930258;28;20143;-81
2021/11/08 10:49:12;;;;;;;9.02;3.10;;;19.70;96.70;;;;;;4931389;28;20047;-80
2021/11/08 10:51:43;;;;;;;7.45;3.00;;;19.80;96.70;;;;;;4942034;28;20054;-81
2021/11/08 10:54:14;;;;;;;5.30;2.40;;;19.90;96.70;;;;;;4919688;29;20130;-81
2021/11/08 10:56:47;;;;;;;7.13;2.38;;;19.90;96.70;;;;;;4932957;28;20047;-80
2021/11/08 10:59:18;;;;;;;4.25;2.15;;;20.00;96.70;;;;;;4936577;28;20379;-81
2021/11/08 11:01:48;;;;;;;8.70;2.85;;;19.90;96.70;;;;;;4922691;29;20075;-83
2021/11/08 11:04:18;;;;;;;10.77;2.75;;;19.90;96.70;;;;;;4940125;28;20048;-81
2021/11/08 11:06:48;;;;;;;8.18;2.75;;;20.10;96.70;;;;;;4942911;28;20050;-82
2021/11/08 11:09:19;;;;;;;5.72;2.55;;;20.10;96.70;;;;;;4928780;29;20047;-82
2021/11/08 11:12:04;;;;;;;5.10;2.20;;;20.20;96.70;;;;;;4929323;28;20051;-82
2021/11/08 11:14:34;;;;;;;6.10;2.70;;;20.20;96.70;;;;;;4921983;28;20498;-82
2021/11/08 11:17:07;;;;;;;7.85;2.67;;;20.30;96.70;;;;;;4927480;28;20114;-82
2021/11/08 11:19:37;;;;;;;10.38;2.88;;;20.40;96.70;;;;;;4942123;28;20502;-83
2021/11/08 11:22:09;;;;;;;7.45;2.92;;;20.30;96.70;;;;;;4950510;28;20031;-81
2021/11/08 11:24:45;;;;;;;10.52;3.22;;;20.00;96.70;;;;;;4925778;29;20039;-82
2021/11/08 11:27:32;;;;;;;8.82;2.75;;;19.80;96.70;;;;;;4933143;28;20051;-80
2021/11/08 11:30:17;;;;;;;9.45;2.85;;;19.60;96.70;;;;;;4925252;28;20052;-82
2021/11/08 11:32:55;;;;;;;4.43;2.30;;;19.40;96.70;;;;;;4950286;28;20043;-78
2021/11/08 11:35:23;;;;;;;7.30;2.50;;;19.30;96.70;;;;;;4938386;28;20059;-77
2021/11/08 11:37:56;;;;;;;7.45;3.25;;;19.20;96.70;;;;;;4934738;28;20545;-78
2021/11/08 11:40:24;;;;;;;5.70;1.80;;;19.00;96.70;;;;;;4940799;28;20125;-78
2021/11/08 11:42:56;;;;;;;3.63;1.83;;;18.80;96.70;;;;;;4935887;28;20039;-78
2021/11/08 11:45:27;;;;;;;3.17;1.70;;;18.70;96.70;;;;;;4923277;28;20067;-78
2021/11/08 11:47:59;;;;;;;3.78;1.45;;;18.70;96.70;;;;;;4939434;28;20067;-79
2021/11/08 11:50:28;;;;;;;5.97;1.65;;;18.80;96.70;;;;;;4939142;28;20162;-77
2021/11/08 11:52:58;;;;;;;4.05;1.52;;;18.80;96.70;;;;;;4936911;28;20046;-77
2021/11/08 11:55:27;;;;;;;3.63;1.40;;;19.00;96.70;;;;;;4933503;28;20066;-77
2021/11/08 11:58:01;;;;;;;5.18;1.40;;;19.20;96.70;;;;;;4928616;28;20047;-78
2021/11/08 12:00:33;;;;;;;4.72;1.60;;;19.20;96.70;;;;;;4940788;28;20102;-78
2021/11/08 12:03:03;;;;;;;3.08;1.30;;;19.20;96.70;;;;;;4932049;28;20318;-80
2021/11/08 12:05:34;;;;;;;3.17;1.30;;;19.20;96.70;;;;;;4929807;28;20051;-81
2021/11/08 12:08:06;;;;;;;3.42;1.17;;;19.30;96.70;;;;;;4925323;29;20129;-80
2021/11/08 12:10:43;;;;;;;1.42;0.80;;;19.20;96.70;;;;;;4920081;28;20047;-80
2021/11/08 12:13:18;;;;;;;3.13;1.30;;;19.30;96.70;;;;;;4923539;28;20458;-80
2021/11/08 12:15:47;;;;;;;2.50;1.00;;;19.30;96.70;;;;;;4941692;28;20466;-78
2021/11/08 12:18:17;;;;;;;2.53;1.00;;;19.30;96.70;;;;;;4950031;28;20057;-78
2021/11/08 12:20:48;;;;;;;1.98;1.08;;;19.40;96.70;;;;;;4933187;28;20052;-80
2021/11/08 12:23:19;;;;;;;1.52;0.80;;;19.40;96.70;;;;;;4937208;28;20051;-77
2021/11/08 12:25:47;;;;;;;1.50;0.82;;;19.40;96.70;;;;;;4941559;28;20091;-79
2021/11/08 12:28:21;;;;;;;2.90;1.08;;;19.50;96.70;;;;;;4927530;28;20514;-78
2021/11/08 12:30:52;;;;;;;2.53;1.08;;;19.60;96.70;;;;;;4937946;28;20055;-78
2021/11/08 12:33:27;;;;;;;1.52;1.00;;;19.60;96.70;;;;;;4923667;28;20147;-78
2021/11/08 12:35:58;;;;;;;2.72;1.25;;;19.70;96.70;;;;;;4914090;28;20372;-78
2021/11/08 12:38:28;;;;;;;1.63;0.93;;;19.70;96.70;;;;;;4933193;28;20075;-78
2021/11/08 12:41:09;;;;;;;2.53;0.95;;;19.70;96.70;;;;;;4936895;28;20146;-79
2021/11/08 12:43:43;;;;;;;3.88;0.80;;;19.70;96.70;;;;;;4944706;28;20167;-76
2021/11/08 12:46:13;;;;;;;2.60;0.82;;;19.40;96.70;;;;;;4932701;28;20036;-76
2021/11/08 12:48:42;;;;;;;2.50;0.80;;;19.20;96.70;;;;;;4937320;28;20105;-78
2021/11/08 12:51:13;;;;;;;3.95;0.80;;;19.00;96.70;;;;;;4920346;28;20063;-78
2021/11/08 12:53:44;;;;;;;1.08;0.57;;;18.80;96.70;;;;;;4936646;28;20075;-77
2021/11/08 12:56:22;;;;;;;2.85;0.95;;;18.80;96.70;;;;;;4939836;28;20039;-80
2021/11/08 12:58:57;;;;;;;1.50;0.70;;;18.80;96.70;;;;;;4938471;28;20139;-80
2021/11/08 13:01:38;;;;;;;4.03;0.80;;;18.90;96.70;;;;;;4937732;28;20043;-78
2021/11/08 13:04:14;;;;;;;1.25;0.40;;;19.20;96.70;;;;;;4940424;28;20047;-79
2021/11/08 13:06:42;;;;;;;1.00;0.40;;;19.10;96.70;;;;;;4934834;28;20050;-80
2021/11/08 13:09:19;;;;;;;0.82;0.50;;;19.10;96.70;;;;;;4934893;28;20130;-80
2021/11/08 13:11:49;;;;;;;1.98;0.60;;;19.30;96.70;;;;;;4929931;28;20156;-80
2021/11/08 13:14:25;;;;;;;1.52;0.50;;;19.40;96.70;;;;;;4935780;28;20039;-80
2021/11/08 13:17:06;;;;;;;3.72;0.60;;;19.40;96.70;;;;;;4938952;28;20051;-80
2021/11/08 13:19:45;;;;;;;1.00;0.60;;;19.60;96.70;;;;;;4934533;28;20043;-79
2021/11/08 13:22:18;;;;;;;1.50;0.50;;;19.60;96.70;;;;;;4929470;28;20393;-80
2021/11/08 13:24:59;;;;;;;2.53;0.32;;;19.50;96.70;;;;;;4936992;28;20048;-79
2021/11/08 13:27:50;;;;;;;1.90;0.43;;;19.50;96.70;;;;;;4933500;28;20051;-80
2021/11/08 13:30:24;;;;;;;0.98;0.52;;;19.60;96.70;;;;;;4932043;28;20043;-80
2021/11/08 13:32:53;;;;;;;1.10;0.40;;;19.50;96.70;;;;;;4934684;28;20057;-79
2021/11/08 13:35:27;;;;;;;2.15;0.50;;;19.20;96.70;;;;;;4936717;28;20051;-79
2021/11/08 13:38:07;;;;;;;2.17;0.50;;;18.90;96.70;;;;;;4920108;28;20050;-80
2021/11/08 13:40:39;;;;;;;1.20;0.63;;;18.80;96.70;;;;;;4934526;28;20129;-80
2021/11/08 13:43:14;;;;;;;2.45;0.80;;;18.60;96.70;;;;;;4921476;28;20055;-80
2021/11/08 13:45:49;;;;;;;1.67;0.40;;;18.50;96.70;;;;;;4941296;28;20370;-80
2021/11/08 13:48:29;;;;;;;1.15;0.50;;;18.50;96.70;;;;;;4925976;28;20125;-79
2021/11/08 13:51:00;;;;;;;0.63;0.50;;;18.40;96.70;;;;;;4943018;28;20147;-78
2021/11/08 13:53:31;;;;;;;1.23;0.40;;;18.30;96.70;;;;;;4936687;28;20048;-79
2021/11/08 13:56:01;;;;;;;1.33;0.52;;;18.30;96.70;;;;;;4916258;29;20414;-79
2021/11/08 13:58:30;;;;;;;1.27;0.70;;;18.30;96.70;;;;;;4936054;28;20382;-79
2021/11/08 14:01:09;;;;;;;1.60;0.52;;;18.20;96.70;;;;;;4939628;28;20039;-78
2021/11/08 14:03:39;;;;;;;1.00;0.38;;;18.20;96.70;;;;;;4930383;28;20059;-79
2021/11/08 14:06:09;;;;;;;1.30;0.40;;;18.10;96.70;;;;;;4942640;28;20051;-79
2021/11/08 14:08:45;;;;;;;2.72;1.08;;;18.00;96.70;;;;;;4932367;28;20502;-78
2021/11/08 14:11:22;;;;;;;1.60;0.50;;;17.90;96.70;;;;;;4933189;28;20118;-79
2021/11/08 14:13:54;;;;;;;0.80;0.45;;;17.80;96.70;;;;;;4937433;28;20713;-79
2021/11/08 14:16:24;;;;;;;1.20;0.45;;;17.70;96.70;;;;;;4935005;28;20584;-80
2021/11/08 14:18:54;;;;;;;0.98;0.52;;;17.70;96.70;;;;;;4939384;28;20045;-80
2021/11/08 14:21:24;;;;;;;0.90;0.60;;;17.70;96.70;;;;;;4927444;28;20051;-79
2021/11/08 14:23:59;;;;;;;1.80;0.60;;;17.60;96.70;;;;;;4939747;28;20439;-79
2021/11/08 14:26:28;;;;;;;1.90;0.77;;;17.60;96.70;;;;;;4934252;28;20532;-79
2021/11/08 14:28:57;;;;;;;0.95;0.50;;;17.60;96.70;;;;;;4930361;28;20090;-79
2021/11/08 14:31:29;;;;;;;1.08;0.50;;;17.70;96.70;;;;;;4936647;28;20133;-79
2021/11/08 14:34:01;;;;;;;1.23;0.50;;;17.70;96.70;;;;;;4933512;28;20135;-79
2021/11/08 14:36:33;;;;;;;0.82;0.28;;;17.60;96.70;;;;;;4936726;28;20555;-79
2021/11/08 14:39:11;;;;;;;3.03;0.60;;;17.50;96.70;;;;;;4928866;28;20051;-80
2021/11/08 14:41:55;;;;;;;1.90;0.65;;;17.50;96.70;;;;;;4933147;28;20051;-80